createdAt,value
2023-04-16T00:00:04.853Z,3.67
2023-04-16T00:02:32.785Z,3.43
2023-04-16T00:05:01.215Z,3.66
2023-04-16T00:07:29.192Z,3.86
2023-04-16T00:09:57.111Z,3.82
2023-04-16T00:12:25.250Z,3.74
2023-04-16T00:14:53.094Z,3.73
2023-04-16T00:17:22.337Z,3.78
2023-04-16T00:19:50.184Z,4.24
2023-04-16T00:22:18.154Z,4.07
2023-04-16T00:24:45.963Z,4.32
2023-04-16T00:27:13.848Z,4.74
2023-04-16T00:29:41.668Z,4.55
2023-04-16T00:32:09.757Z,5.14
2023-04-16T00:34:39.005Z,5.48
2023-04-16T00:37:08.549Z,5.41
2023-04-16T00:39:36.452Z,5.85
2023-04-16T00:42:04.419Z,6.04
2023-04-16T00:44:34.909Z,5.75
2023-04-16T00:47:03.880Z,6.09
2023-04-16T00:49:32.372Z,6.44
2023-04-16T00:52:02.554Z,6.73
2023-04-16T00:54:32.749Z,6.60
2023-04-16T00:57:01.630Z,6.44
2023-04-16T00:59:30.248Z,7.13
2023-04-16T01:01:58.241Z,7.41
2023-04-16T01:04:26.513Z,7.71
2023-04-16T01:06:54.816Z,7.77
2023-04-16T01:09:24.050Z,7.93
2023-04-16T01:11:51.905Z,7.72
2023-04-16T01:14:19.759Z,7.86
2023-04-16T01:16:47.614Z,8.03
2023-04-16T01:19:15.505Z,8.02
2023-04-16T01:21:44.764Z,7.56
2023-04-16T01:24:12.599Z,7.70
2023-04-16T01:26:40.450Z,7.76
2023-04-16T01:29:08.578Z,7.57
2023-04-16T01:31:36.727Z,7.96
2023-04-16T01:34:04.663Z,7.97
2023-04-16T01:36:32.554Z,7.71
2023-04-16T01:39:01.761Z,7.78
2023-04-16T01:41:29.588Z,7.64
2023-04-16T01:43:57.424Z,7.90
2023-04-16T01:46:29.341Z,8.03
2023-04-16T01:48:57.965Z,8.03
2023-04-16T01:51:25.959Z,8.04
2023-04-16T01:53:53.873Z,8.25
2023-04-16T01:56:23.138Z,8.59
2023-04-16T01:58:51.065Z,9.23
2023-04-16T02:01:19.285Z,9.67
2023-04-16T02:03:47.888Z,10.14
2023-04-16T02:06:15.936Z,9.79
2023-04-16T02:08:43.833Z,9.70
2023-04-16T02:11:11.745Z,10.51
2023-04-16T02:13:40.981Z,10.84
2023-04-16T02:16:08.940Z,11.94
2023-04-16T02:18:36.830Z,13.29
2023-04-16T02:21:06.472Z,13.67
2023-04-16T02:23:34.569Z,14.19
2023-04-16T02:26:04.489Z,13.31
2023-04-16T02:28:32.337Z,14.09
2023-04-16T02:31:01.580Z,12.42
2023-04-16T02:33:33.767Z,11.60
2023-04-16T02:36:01.673Z,11.01
2023-04-16T02:38:29.664Z,10.60
2023-04-16T02:40:57.474Z,10.41
2023-04-16T02:43:25.340Z,9.91
2023-04-16T02:45:53.213Z,9.51
2023-04-16T02:48:22.636Z,9.80
2023-04-16T02:50:50.440Z,9.41
2023-04-16T02:53:18.565Z,9.03
2023-04-16T02:55:52.515Z,9.18
2023-04-16T02:58:20.529Z,9.01
2023-04-16T03:00:48.890Z,8.78
2023-04-16T03:03:20.504Z,8.86
2023-04-16T03:05:49.885Z,8.62
2023-04-16T03:08:17.751Z,8.46
2023-04-16T03:10:45.659Z,8.03
2023-04-16T03:13:16.506Z,8.17
2023-04-16T03:15:49.886Z,8.62
2023-04-16T03:18:17.871Z,7.75
2023-04-16T03:20:45.888Z,8.10
2023-04-16T03:23:15.128Z,7.84
2023-04-16T03:25:46.547Z,7.37
2023-04-16T03:28:14.500Z,7.16
2023-04-16T03:30:42.403Z,6.85
2023-04-16T03:33:10.285Z,7.29
2023-04-16T03:35:38.169Z,6.87
2023-04-16T03:38:06.006Z,6.48
2023-04-16T03:40:37.716Z,6.62
2023-04-16T03:43:05.597Z,6.68
2023-04-16T03:45:33.454Z,6.85
2023-04-16T03:48:01.278Z,6.66
2023-04-16T03:50:29.134Z,6.82
2023-04-16T03:52:57.013Z,6.85
2023-04-16T03:55:27.694Z,6.68
2023-04-16T03:57:57.426Z,6.34
2023-04-16T04:00:25.377Z,6.17
2023-04-16T04:02:53.385Z,6.30
2023-04-16T04:05:21.362Z,5.89
2023-04-16T04:07:49.260Z,6.25
2023-04-16T04:10:17.293Z,5.81
2023-04-16T04:12:45.455Z,5.83
2023-04-16T04:15:14.964Z,5.49
2023-04-16T04:17:42.863Z,5.71
2023-04-16T04:20:11.919Z,5.48
2023-04-16T04:22:39.788Z,5.97
2023-04-16T04:25:08.565Z,5.73
2023-04-16T04:27:36.440Z,5.14
2023-04-16T04:30:04.895Z,5.68
2023-04-16T04:32:34.147Z,5.22
2023-04-16T04:35:03.662Z,5.18
2023-04-16T04:37:31.490Z,4.97
2023-04-16T04:39:59.384Z,4.94
2023-04-16T04:42:27.314Z,4.71
2023-04-16T04:44:55.169Z,4.71
2023-04-16T04:47:23.055Z,4.87
2023-04-16T04:49:52.315Z,4.73
2023-04-16T04:52:20.996Z,4.73
2023-04-16T04:54:48.848Z,4.35
2023-04-16T04:57:16.680Z,4.14
2023-04-16T04:59:44.767Z,4.02
2023-04-16T05:02:12.654Z,4.46
2023-04-16T05:04:40.951Z,3.91
2023-04-16T05:07:10.234Z,3.85
2023-04-16T05:09:38.080Z,3.73
2023-04-16T05:12:06.167Z,3.95
2023-04-16T05:14:34.000Z,3.90
2023-04-16T05:17:02.073Z,4.03
2023-04-16T05:19:29.986Z,3.79
2023-04-16T05:21:57.864Z,3.96
2023-04-16T05:24:27.176Z,3.35
2023-04-16T05:26:55.040Z,3.44
2023-04-16T05:29:22.887Z,3.11
2023-04-16T05:31:50.884Z,2.99
2023-04-16T05:34:18.769Z,3.51
2023-04-16T05:36:46.936Z,3.32
2023-04-16T05:39:14.822Z,3.66
2023-04-16T05:41:44.021Z,4.34
2023-04-16T05:44:11.917Z,4.36
2023-04-16T05:46:39.801Z,4.31
2023-04-16T05:49:07.946Z,4.50
2023-04-16T05:51:36.621Z,4.58
2023-04-16T05:54:04.602Z,5.12
2023-04-16T05:56:32.476Z,3.87
2023-04-16T05:59:01.701Z,3.24
2023-04-16T06:01:29.612Z,3.91
2023-04-16T06:03:57.536Z,4.33
2023-04-16T06:06:27.385Z,5.03
2023-04-16T06:08:55.267Z,4.81
2023-04-16T06:11:23.262Z,5.25
2023-04-16T06:13:51.116Z,5.26
2023-04-16T06:16:20.325Z,4.21
2023-04-16T06:18:48.335Z,4.13
2023-04-16T06:21:17.165Z,5.18
2023-04-16T06:23:45.079Z,16.15
2023-04-16T06:26:16.135Z,13.91
2023-04-16T06:28:43.957Z,10.81
2023-04-16T06:31:11.948Z,7.52
2023-04-16T06:33:41.221Z,4.37
2023-04-16T06:36:09.139Z,4.39
2023-04-16T06:38:37.843Z,3.94
2023-04-16T06:41:05.951Z,2.86
2023-04-16T06:43:34.524Z,3.43
2023-04-16T06:46:02.385Z,3.21
2023-04-16T06:48:30.306Z,3.28
2023-04-16T06:50:59.743Z,3.27
2023-04-16T06:53:30.742Z,3.55
2023-04-16T06:56:03.318Z,5.66
2023-04-16T06:58:31.171Z,6.26
2023-04-16T07:00:59.208Z,6.34
2023-04-16T07:03:27.700Z,6.74
2023-04-16T07:05:55.706Z,4.80
2023-04-16T07:08:25.521Z,4.55
2023-04-16T07:10:53.864Z,4.09
2023-04-16T07:13:22.167Z,2.61
2023-04-16T07:15:52.952Z,2.93
2023-04-16T07:18:21.459Z,3.01
2023-04-16T07:20:49.381Z,3.08
2023-04-16T07:23:17.261Z,3.33
2023-04-16T07:25:46.530Z,5.21
2023-04-16T07:28:16.632Z,5.26
2023-04-16T07:30:45.720Z,3.94
2023-04-16T07:33:13.622Z,3.83
2023-04-16T07:35:41.462Z,3.65
2023-04-16T07:38:09.429Z,3.90
2023-04-16T07:40:38.100Z,2.89
2023-04-16T07:43:07.862Z,2.51
2023-04-16T07:45:35.822Z,3.46
2023-04-16T07:48:03.748Z,3.12
2023-04-16T07:50:31.755Z,3.18
2023-04-16T07:52:59.757Z,3.96
2023-04-16T07:55:27.646Z,4.44
2023-04-16T07:57:56.291Z,3.83
2023-04-16T08:00:26.400Z,4.10
2023-04-16T08:02:54.480Z,3.76
2023-04-16T08:05:22.645Z,3.39
2023-04-16T08:07:50.639Z,3.36
2023-04-16T08:10:18.537Z,3.11
2023-04-16T08:12:46.518Z,3.90
2023-04-16T08:15:14.439Z,4.52
2023-04-16T08:17:43.704Z,3.40
2023-04-16T08:20:15.764Z,3.16
2023-04-16T08:22:46.525Z,3.27
2023-04-16T08:25:14.427Z,3.62
2023-04-16T08:27:42.524Z,3.13
2023-04-16T08:30:10.644Z,2.90
2023-04-16T08:32:38.651Z,2.87
2023-04-16T08:35:08.569Z,3.01
2023-04-16T08:37:36.504Z,3.13
2023-04-16T08:40:05.050Z,2.69
2023-04-16T08:42:37.063Z,2.62
2023-04-16T08:45:09.546Z,2.68
2023-04-16T08:47:37.999Z,2.25
2023-04-16T08:50:09.944Z,2.18
2023-04-16T08:52:43.461Z,1.88
2023-04-16T08:55:15.136Z,1.90
2023-04-16T08:57:49.500Z,2.15
2023-04-16T09:00:18.425Z,2.20
2023-04-16T09:02:46.682Z,3.39
2023-04-16T09:05:19.003Z,2.17
2023-04-16T09:07:48.383Z,2.58
2023-04-16T09:10:16.939Z,2.36
2023-04-16T09:12:45.552Z,3.95
2023-04-16T09:15:14.863Z,2.95
2023-04-16T09:17:42.850Z,6.02
2023-04-16T09:20:12.517Z,5.12
2023-04-16T09:22:41.808Z,3.49
2023-04-16T09:25:11.054Z,3.05
2023-04-16T09:27:39.267Z,4.27
2023-04-16T09:30:22.097Z,5.17
2023-04-16T09:32:50.493Z,7.98
2023-04-16T09:35:19.800Z,7.89
2023-04-16T09:37:58.134Z,4.80
2023-04-16T09:40:27.368Z,4.39
2023-04-16T09:42:58.821Z,4.41
2023-04-16T09:45:26.736Z,4.81
2023-04-16T09:48:04.250Z,1.72
2023-04-16T09:50:32.284Z,1.34
2023-04-16T09:53:04.550Z,1.02
2023-04-16T09:55:33.675Z,0.81
2023-04-16T09:58:02.417Z,0.92
2023-04-16T10:00:31.867Z,0.93
2023-04-16T10:03:06.743Z,1.00
2023-04-16T10:05:34.928Z,2.16
2023-04-16T10:08:04.234Z,2.86
2023-04-16T10:10:33.657Z,1.76
2023-04-16T10:13:02.640Z,1.68
2023-04-16T10:15:31.406Z,1.33
2023-04-16T10:18:00.325Z,0.96
2023-04-16T10:20:28.913Z,2.56
2023-04-16T10:22:58.686Z,2.03
2023-04-16T10:25:29.975Z,1.17
2023-04-16T10:27:59.517Z,1.16
2023-04-16T10:30:28.849Z,2.70
2023-04-16T10:33:00.201Z,3.44
2023-04-16T10:35:28.452Z,5.16
2023-04-16T10:37:57.899Z,8.86
2023-04-16T10:40:29.491Z,4.52
2023-04-16T10:42:59.135Z,2.66
2023-04-16T10:45:30.760Z,2.12
2023-04-16T10:47:58.924Z,1.88
2023-04-16T10:50:36.001Z,1.77
2023-04-16T10:53:25.713Z,2.04
2023-04-16T10:56:15.512Z,2.17
2023-04-16T10:58:43.558Z,2.54
2023-04-16T11:01:16.991Z,2.95
2023-04-16T11:03:48.128Z,2.30
2023-04-16T11:06:18.120Z,1.94
2023-04-16T11:08:54.654Z,1.50
2023-04-16T11:11:24.838Z,1.49
2023-04-16T11:13:57.492Z,1.57
2023-04-16T11:16:27.637Z,1.63
2023-04-16T11:18:57.096Z,1.74
2023-04-16T11:21:25.655Z,1.97
2023-04-16T11:23:54.824Z,1.83
2023-04-16T11:26:27.114Z,1.85
2023-04-16T11:28:56.667Z,2.38
2023-04-16T11:31:27.250Z,2.13
2023-04-16T11:33:57.821Z,2.65
2023-04-16T11:36:27.728Z,2.62
2023-04-16T11:39:04.191Z,3.12
2023-04-16T11:41:33.516Z,3.40
2023-04-16T11:44:01.420Z,3.64
2023-04-16T11:46:40.728Z,4.48
2023-04-16T11:49:09.058Z,2.93
2023-04-16T11:51:41.504Z,3.12
2023-04-16T11:54:12.030Z,4.26
2023-04-16T11:56:48.669Z,4.78
2023-04-16T11:59:18.183Z,4.72
2023-04-16T12:01:49.820Z,4.28
2023-04-16T12:04:20.218Z,4.16
2023-04-16T12:07:08.452Z,3.36
2023-04-16T12:09:40.135Z,3.72
2023-04-16T12:12:27.596Z,4.52
2023-04-16T12:14:57.031Z,4.17
2023-04-16T12:17:25.569Z,4.37
2023-04-16T12:19:57.786Z,4.16
2023-04-16T12:22:30.717Z,3.57
2023-04-16T12:25:04.159Z,2.41
2023-04-16T12:27:53.391Z,2.70
2023-04-16T12:30:25.214Z,2.68
2023-04-16T12:32:57.903Z,2.23
2023-04-16T12:35:36.960Z,2.67
2023-04-16T12:38:17.048Z,2.74
2023-04-16T12:40:45.097Z,2.45
2023-04-16T12:43:14.699Z,2.34
2023-04-16T12:45:42.909Z,2.67
2023-04-16T12:48:10.992Z,2.83
2023-04-16T12:50:40.981Z,2.56
2023-04-16T12:53:12.882Z,2.58
2023-04-16T12:55:46.888Z,3.22
2023-04-16T12:58:25.674Z,3.70
2023-04-16T13:00:54.069Z,3.14
2023-04-16T13:03:24.572Z,2.13
2023-04-16T13:05:52.978Z,2.07
2023-04-16T13:08:21.871Z,2.28
2023-04-16T13:10:50.091Z,2.00
2023-04-16T13:13:34.485Z,1.98
2023-04-16T13:16:04.207Z,2.27
2023-04-16T13:18:32.214Z,2.81
2023-04-16T13:21:00.776Z,2.85
2023-04-16T13:23:28.876Z,2.81
2023-04-16T13:25:59.165Z,2.70
2023-04-16T13:28:27.258Z,2.84
2023-04-16T13:30:56.888Z,2.55
2023-04-16T13:33:25.126Z,1.53
2023-04-16T13:35:53.359Z,1.16
2023-04-16T17:39:15.818Z,6.65
2023-04-16T17:41:43.861Z,7.05
2023-04-16T17:44:12.230Z,6.25
2023-04-16T17:46:40.250Z,4.72
2023-04-16T17:49:08.400Z,4.27
2023-04-16T17:51:36.401Z,4.25
2023-04-16T17:54:04.479Z,4.60
2023-04-16T17:56:33.975Z,5.43
2023-04-16T17:59:02.223Z,7.57
2023-04-16T18:01:30.223Z,6.42
2023-04-16T18:03:58.421Z,6.39
2023-04-16T18:06:27.593Z,7.08
2023-04-16T18:08:55.526Z,7.36
2023-04-16T18:11:23.535Z,7.08
2023-04-16T18:13:54.028Z,4.56
2023-04-16T18:16:22.446Z,1.99
2023-04-16T18:18:50.919Z,2.41
2023-04-16T18:21:18.868Z,2.33
2023-04-16T18:23:48.177Z,1.29
2023-04-16T18:26:20.439Z,3.08
2023-04-16T18:28:50.362Z,3.52
2023-04-16T18:31:21.370Z,3.88
2023-04-16T18:33:57.417Z,4.31
2023-04-16T18:36:27.438Z,2.90
2023-04-16T18:41:27.210Z,1.01
2023-04-16T18:43:55.385Z,1.16
2023-04-16T18:46:25.328Z,0.95
2023-04-16T18:48:53.594Z,1.03
2023-04-16T18:51:21.666Z,1.23
2023-04-16T18:53:49.645Z,1.86
2023-04-16T18:56:17.668Z,1.96
2023-04-16T18:58:45.726Z,1.83
2023-04-16T19:01:14.155Z,2.22
2023-04-16T19:03:46.482Z,1.64
2023-04-16T19:06:16.917Z,2.73
2023-04-16T19:08:44.984Z,2.40
2023-04-16T19:11:13.030Z,2.42
2023-04-16T19:14:34.397Z,2.13
2023-04-16T19:16:36.214Z,1.80
2023-04-16T19:19:05.568Z,2.18
2023-04-16T19:21:33.699Z,1.28
2023-04-16T19:24:01.664Z,1.23
2023-04-16T19:26:29.685Z,1.32
2023-04-16T19:28:57.673Z,1.11
2023-04-16T19:31:26.447Z,3.16
2023-04-16T19:33:54.384Z,2.67
2023-04-16T19:36:23.722Z,0.93
2023-04-16T19:38:51.716Z,0.36
2023-04-16T19:41:19.787Z,0.22
2023-04-16T19:43:47.795Z,0.27
2023-04-16T19:46:16.758Z,0.34
2023-04-16T19:48:44.754Z,0.44
2023-04-16T19:51:12.657Z,0.98
2023-04-16T19:53:42.230Z,0.23
2023-04-16T19:56:10.134Z,0.23
2023-04-16T19:58:39.252Z,0.21
2023-04-16T20:01:09.872Z,0.21
2023-04-16T20:03:38.127Z,0.38
2023-04-16T20:06:07.628Z,0.50
2023-04-16T20:08:37.549Z,0.70
2023-04-16T20:11:08.562Z,1.03
2023-04-16T20:13:37.586Z,0.32
2023-04-16T20:16:05.777Z,0.55
2023-04-16T20:18:41.393Z,0.38
2023-04-16T20:21:09.482Z,0.31
2023-04-16T20:23:37.441Z,0.25
2023-04-16T20:26:07.404Z,1.51
2023-04-16T20:28:35.318Z,0.22
2023-04-16T20:31:03.217Z,0.52
2023-04-16T20:33:31.092Z,0.20
2023-04-16T20:35:58.997Z,0.31
2023-04-16T20:38:29.650Z,0.22
2023-04-16T20:41:06.577Z,0.39
2023-04-16T20:43:38.632Z,0.77
2023-04-16T20:46:06.752Z,2.30
2023-04-16T20:48:35.337Z,1.13
2023-04-16T20:51:05.415Z,0.33
2023-04-16T20:53:34.416Z,0.24
2023-04-16T20:56:02.321Z,0.43
2023-04-16T20:58:30.726Z,0.27
2023-04-16T21:01:00.020Z,3.55
2023-04-16T21:03:28.114Z,1.64
2023-04-16T21:05:56.838Z,0.18
2023-04-16T21:08:25.649Z,0.19
2023-04-16T21:10:53.586Z,0.18
2023-04-16T21:13:21.865Z,0.22
2023-04-16T21:15:49.829Z,0.45
2023-04-16T21:18:19.334Z,0.28
2023-04-16T21:20:47.257Z,0.41
2023-04-16T21:23:15.178Z,0.34
2023-04-16T21:25:43.053Z,0.39
2023-04-16T21:28:10.952Z,0.64
2023-04-16T21:30:39.302Z,0.19
2023-04-16T21:33:07.658Z,0.32
2023-04-16T21:35:36.924Z,0.49
2023-04-16T21:38:04.852Z,0.48
2023-04-16T21:40:32.777Z,0.17
2023-04-16T21:43:01.037Z,0.21
2023-04-16T21:45:30.505Z,0.19
2023-04-16T21:47:58.704Z,0.22
2023-04-16T21:50:26.707Z,0.14
2023-04-16T21:52:56.002Z,0.15
2023-04-16T21:55:24.443Z,0.33
2023-04-16T21:57:52.338Z,0.43
2023-04-16T22:00:21.210Z,0.45
2023-04-16T22:02:49.360Z,0.33
2023-04-16T22:05:17.661Z,0.46
2023-04-16T22:07:46.044Z,1.64
2023-04-16T22:10:15.935Z,4.17
2023-04-16T22:12:44.914Z,3.51
2023-04-16T22:15:14.629Z,1.65
2023-04-16T22:17:42.796Z,0.62
2023-04-16T22:20:12.749Z,0.41
2023-04-16T22:22:41.072Z,0.50
2023-04-16T22:25:09.788Z,0.72
2023-04-16T22:27:39.335Z,0.50
2023-04-16T22:30:09.282Z,0.43
2023-04-16T22:32:37.371Z,0.40
2023-04-16T22:35:06.069Z,0.49
2023-04-16T22:37:34.725Z,0.31
2023-04-16T22:40:02.843Z,1.03
2023-04-16T22:42:32.910Z,2.48
2023-04-16T22:45:02.283Z,2.65
2023-04-16T22:47:30.364Z,2.92
2023-04-16T22:49:59.140Z,2.70
2023-04-16T22:52:27.421Z,2.76
2023-04-16T22:54:55.542Z,2.53
2023-04-16T22:57:25.646Z,2.69
2023-04-16T22:59:54.146Z,2.77
2023-04-16T23:02:23.638Z,2.70
2023-04-16T23:04:51.755Z,2.96
2023-04-16T23:07:19.779Z,3.14
2023-04-16T23:09:47.782Z,2.63
2023-04-16T23:12:15.789Z,2.42
2023-04-16T23:14:46.041Z,2.05
2023-04-16T23:17:14.780Z,2.44
2023-04-16T23:19:44.178Z,1.92
2023-04-16T23:22:12.334Z,2.18
2023-04-16T23:24:40.332Z,2.45
2023-04-16T23:27:08.445Z,2.41
2023-04-16T23:29:36.451Z,2.18
2023-04-16T23:32:04.554Z,2.65
2023-04-16T23:34:32.495Z,2.83
2023-04-16T23:37:01.888Z,2.77
2023-04-16T23:39:29.858Z,1.99
2023-04-16T23:41:58.225Z,2.44
2023-04-16T23:44:26.269Z,2.21
2023-04-16T23:46:54.261Z,2.32
2023-04-16T23:49:22.211Z,2.50
2023-04-16T23:51:50.046Z,2.42
2023-04-16T23:54:19.433Z,2.59
2023-04-16T23:56:47.295Z,2.97
2023-04-16T23:59:15.437Z,3.00
